createdAt,value
2023-04-02T00:02:36.000Z,33.51
2023-04-02T00:07:36.000Z,33.04
2023-04-02T00:12:35.000Z,33.35
2023-04-02T00:17:35.000Z,33.88
2023-04-02T00:22:35.000Z,33.81
2023-04-02T00:27:35.000Z,33.47
2023-04-02T00:32:36.000Z,33.47
2023-04-02T00:37:36.000Z,33.89
2023-04-02T00:42:35.000Z,34.04
2023-04-02T00:47:36.000Z,32.87
2023-04-02T00:52:36.000Z,34.66
2023-04-02T00:57:35.000Z,34.42
2023-04-02T01:02:36.000Z,34.21
2023-04-02T01:07:35.000Z,34.11
2023-04-02T01:12:36.000Z,33.47
2023-04-02T01:17:35.000Z,33.98
2023-04-02T01:22:35.000Z,33.31
2023-04-02T01:27:36.000Z,33.2
2023-04-02T01:32:36.000Z,33.46
2023-04-02T01:37:36.000Z,33.48
2023-04-02T01:42:35.000Z,32.99
2023-04-02T01:47:36.000Z,32.99
2023-04-02T01:52:36.000Z,32.57
2023-04-02T01:57:35.000Z,33.46
2023-04-02T02:02:36.000Z,34.07
2023-04-02T02:07:35.000Z,34.77
2023-04-02T02:12:36.000Z,33.57
2023-04-02T02:17:35.000Z,33.86
2023-04-02T02:22:35.000Z,33.66
2023-04-02T02:27:36.000Z,33.83
2023-04-02T02:32:36.000Z,33.24
2023-04-02T02:37:35.000Z,34.5
2023-04-02T02:42:36.000Z,33.18
2023-04-02T02:47:35.000Z,33.44
2023-04-02T02:52:35.000Z,33.49
2023-04-02T02:57:36.000Z,33.49
2023-04-02T03:02:36.000Z,33.92
2023-04-02T03:07:35.000Z,34.89
2023-04-02T03:12:35.000Z,33.43
2023-04-02T03:17:36.000Z,33.99
2023-04-02T03:22:35.000Z,35.13
2023-04-02T03:27:36.000Z,34.89
2023-04-02T03:32:36.000Z,33.78
2023-04-02T03:37:35.000Z,34.9
2023-04-02T03:42:36.000Z,34.59
2023-04-02T03:47:36.000Z,34.05
2023-04-02T03:52:35.000Z,34.26
2023-04-02T03:57:35.000Z,33.65
2023-04-02T04:02:36.000Z,33.17
2023-04-02T04:07:36.000Z,32.04
2023-04-02T04:12:35.000Z,32.04
2023-04-02T04:17:35.000Z,31.56
2023-04-02T04:22:35.000Z,31.38
2023-04-02T04:27:36.000Z,29.55
2023-04-02T04:32:36.000Z,29.46
2023-04-02T04:37:36.000Z,27.65
2023-04-02T04:42:35.000Z,27.66
2023-04-02T04:47:36.000Z,27.11
2023-04-02T04:52:35.000Z,25.9
2023-04-02T04:57:35.000Z,25.36
2023-04-02T05:02:36.000Z,25.78
2023-04-02T05:07:36.000Z,25.51
2023-04-02T05:12:35.000Z,24.53
2023-04-02T05:17:36.000Z,24.54
2023-04-02T05:22:36.000Z,24.54
2023-04-02T05:27:35.000Z,25.45
2023-04-02T05:32:36.000Z,25.33
2023-04-02T05:37:36.000Z,24.31
2023-04-02T05:42:36.000Z,24.83
2023-04-02T05:47:36.000Z,24.39
2023-04-02T05:52:35.000Z,26.12
2023-04-02T06:02:36.000Z,26.31
2023-04-02T06:07:36.000Z,26.4
2023-04-02T06:12:35.000Z,27.86
2023-04-02T06:17:36.000Z,27.4
2023-04-02T06:22:35.000Z,29.23
2023-04-02T06:27:36.000Z,29.25
2023-04-02T06:32:35.000Z,29.55
2023-04-02T06:37:35.000Z,29.55
2023-04-02T06:42:35.000Z,29.07
2023-04-02T06:47:35.000Z,28.07
2023-04-02T06:52:36.000Z,27.79
2023-04-02T06:57:35.000Z,28.29
2023-04-02T07:02:36.000Z,27.03
2023-04-02T07:07:35.000Z,25.68
2023-04-02T07:12:36.000Z,25.6
2023-04-02T07:17:35.000Z,27.15
2023-04-02T07:22:35.000Z,24.5
2023-04-02T07:27:35.000Z,24.11
2023-04-02T07:32:35.000Z,25.21
2023-04-02T07:37:36.000Z,24.51
2023-04-02T07:42:36.000Z,24.51
2023-04-02T07:47:35.000Z,24.04
2023-04-02T07:52:36.000Z,23.78
2023-04-02T07:57:36.000Z,23.64
2023-04-02T08:02:36.000Z,24.81
2023-04-02T08:07:35.000Z,22.7
2023-04-02T08:12:35.000Z,22.86
2023-04-02T08:17:36.000Z,21.88
2023-04-02T08:22:35.000Z,22.05
2023-04-02T08:27:35.000Z,21.35
2023-04-02T08:32:36.000Z,23.04
2023-04-02T08:37:35.000Z,21.32
2023-04-02T08:42:36.000Z,21.3
2023-04-02T08:47:36.000Z,21.59
2023-04-02T08:52:35.000Z,21.59
2023-04-02T08:57:36.000Z,23.04
2023-04-02T09:02:36.000Z,21.6
2023-04-02T09:07:35.000Z,21.23
2023-04-02T09:12:35.000Z,20.42
2023-04-02T09:17:36.000Z,19.75
2023-04-02T09:22:36.000Z,19.62
2023-04-02T09:27:36.000Z,19.69
2023-04-02T09:32:36.000Z,19.21
2023-04-02T09:37:35.000Z,18.34
2023-04-02T09:42:36.000Z,18.03
2023-04-02T09:47:36.000Z,18.77
2023-04-02T09:52:36.000Z,17.85
2023-04-02T09:57:35.000Z,17.38
2023-04-02T10:02:36.000Z,17.38
2023-04-02T10:07:35.000Z,16.69
2023-04-02T10:12:36.000Z,16.72
2023-04-02T10:17:36.000Z,17.04
2023-04-02T10:22:36.000Z,17.2
2023-04-02T10:27:36.000Z,16.91
2023-04-02T10:32:36.000Z,16.28
2023-04-02T10:37:36.000Z,16.14
2023-04-02T10:42:35.000Z,16.52
2023-04-02T10:47:36.000Z,16.91
2023-04-02T10:52:35.000Z,16.33
2023-04-02T10:57:36.000Z,16.58
2023-04-02T11:02:37.000Z,16.72
2023-04-02T11:07:35.000Z,17.9
2023-04-02T11:12:35.000Z,17.9
2023-04-02T11:17:35.000Z,18.21
2023-04-02T11:22:35.000Z,17.49
2023-04-02T11:27:36.000Z,18.54
2023-04-02T11:32:35.000Z,17.89
2023-04-02T11:37:36.000Z,19.74
2023-04-02T11:42:36.000Z,19.48
2023-04-02T11:47:36.000Z,19.59
2023-04-02T11:52:36.000Z,19.82
2023-04-02T11:57:35.000Z,19.5
2023-04-02T12:02:35.000Z,19.47
2023-04-02T12:07:36.000Z,20.51
2023-04-02T12:12:35.000Z,19.89
2023-04-02T12:17:36.000Z,20.58
2023-04-02T12:22:35.000Z,20.51
2023-04-02T12:27:35.000Z,20.51
2023-04-02T12:32:39.000Z,19.73
2023-04-02T12:37:35.000Z,20.48
2023-04-02T12:42:36.000Z,20.26
2023-04-02T12:47:35.000Z,20.58
2023-04-02T12:52:36.000Z,21.68
2023-04-02T12:57:36.000Z,22.44
2023-04-02T13:02:35.000Z,22.63
2023-04-02T13:07:35.000Z,25.6
2023-04-02T13:12:36.000Z,24.82
2023-04-02T13:17:35.000Z,23.9
2023-04-02T13:22:36.000Z,23.86
2023-04-02T13:27:36.000Z,23.03
2023-04-02T13:32:36.000Z,21.21
2023-04-02T13:37:35.000Z,21.21
2023-04-02T13:42:35.000Z,22.35
2023-04-02T13:47:35.000Z,20.45
2023-04-02T13:52:36.000Z,19.47
2023-04-02T13:57:36.000Z,19.7
2023-04-02T14:02:35.000Z,16.44
2023-04-02T14:07:35.000Z,15.57
2023-04-02T14:12:35.000Z,16.86
2023-04-02T14:17:35.000Z,16.5
2023-04-02T14:22:35.000Z,16
2023-04-02T14:27:35.000Z,15.69
2023-04-02T14:32:35.000Z,16.72
2023-04-02T14:37:36.000Z,17.3
2023-04-02T14:42:36.000Z,16.67
2023-04-02T14:47:35.000Z,16.67
2023-04-02T14:52:36.000Z,17.48
2023-04-02T14:57:35.000Z,17.71
2023-04-02T15:02:36.000Z,17.19
2023-04-02T15:07:35.000Z,19.81
2023-04-02T15:12:36.000Z,21.97
2023-04-02T15:17:36.000Z,23.1
2023-04-02T15:22:35.000Z,19.74
2023-04-02T15:27:36.000Z,17.88
2023-04-02T15:32:36.000Z,17.21
2023-04-02T15:37:36.000Z,16.55
2023-04-02T15:42:40.000Z,15.9
2023-04-02T15:47:36.000Z,16.5
2023-04-02T15:52:35.000Z,18.07
2023-04-02T15:57:35.000Z,18.07
2023-04-02T16:02:36.000Z,20.19
2023-04-02T16:07:35.000Z,20.47
2023-04-02T16:12:35.000Z,20.76
2023-04-02T16:17:36.000Z,20.93
2023-04-02T16:22:35.000Z,27.24
2023-04-02T16:27:36.000Z,25.14
2023-04-02T16:32:35.000Z,21.96
2023-04-02T16:37:36.000Z,15.58
2023-04-02T16:42:36.000Z,14.87
2023-04-02T16:47:36.000Z,13.67
2023-04-02T16:52:35.000Z,13.51
2023-04-02T16:57:36.000Z,13.02
2023-04-02T17:02:35.000Z,13.15
2023-04-02T17:07:36.000Z,13.15
2023-04-02T17:12:36.000Z,14.96
2023-04-02T17:17:35.000Z,15.9
2023-04-02T17:22:36.000Z,15.86
2023-04-02T17:27:36.000Z,15.13
2023-04-02T17:32:36.000Z,14.75
2023-04-02T17:37:35.000Z,13.58
2023-04-02T17:42:35.000Z,13.57
2023-04-02T17:47:36.000Z,13.81
2023-04-02T17:52:35.000Z,13.58
2023-04-02T17:57:36.000Z,13.45
2023-04-02T18:02:36.000Z,13.79
2023-04-02T18:07:36.000Z,12.97
2023-04-02T18:12:36.000Z,12.83
2023-04-02T18:17:36.000Z,12.83
2023-04-02T18:22:36.000Z,12.77
2023-04-02T18:27:36.000Z,12.61
2023-04-02T18:32:36.000Z,13.28
2023-04-02T18:37:36.000Z,12.79
2023-04-02T18:42:36.000Z,13.24
2023-04-02T18:47:36.000Z,13.94
2023-04-02T18:52:36.000Z,13.58
2023-04-02T18:57:36.000Z,12.7
2023-04-02T19:02:35.000Z,12.44
2023-04-02T19:07:36.000Z,12.62
2023-04-02T19:12:36.000Z,12.33
2023-04-02T19:17:35.000Z,12.19
2023-04-02T19:22:35.000Z,12.17
2023-04-02T19:27:36.000Z,11.32
2023-04-02T19:32:36.000Z,11.32
2023-04-02T19:37:36.000Z,12.04
2023-04-02T19:42:35.000Z,11.78
2023-04-02T19:47:36.000Z,11.87
2023-04-02T19:52:36.000Z,12.57
2023-04-02T19:57:35.000Z,13.26
2023-04-02T20:02:36.000Z,12.65
2023-04-02T20:07:36.000Z,12.8
2023-04-02T20:12:35.000Z,12.39
2023-04-02T20:17:36.000Z,14.67
2023-04-02T20:22:35.000Z,13.42
2023-04-02T20:27:36.000Z,12.18
2023-04-02T20:32:35.000Z,12.97
2023-04-02T20:37:36.000Z,13.66
2023-04-02T20:42:36.000Z,13.38
2023-04-02T20:47:36.000Z,13.38
2023-04-02T20:52:35.000Z,13.15
2023-04-02T20:57:36.000Z,15.92
2023-04-02T21:02:36.000Z,13.41
2023-04-02T21:07:35.000Z,14.44
2023-04-02T21:12:35.000Z,14.42
2023-04-02T21:17:36.000Z,14.6
2023-04-02T21:22:35.000Z,15.64
2023-04-02T21:27:36.000Z,15.96
2023-04-02T21:32:36.000Z,14.39
2023-04-02T21:37:36.000Z,14.91
2023-04-02T21:42:36.000Z,14.89
2023-04-02T21:47:36.000Z,14.48
2023-04-02T21:52:36.000Z,14.74
2023-04-02T21:57:36.000Z,14.74
2023-04-02T22:02:36.000Z,15.67
2023-04-02T22:07:36.000Z,14.83
2023-04-02T22:12:35.000Z,15.19
2023-04-02T22:17:36.000Z,14.82
2023-04-02T22:22:35.000Z,16.98
2023-04-02T22:27:36.000Z,17.18
2023-04-02T22:32:36.000Z,15.87
2023-04-02T22:37:36.000Z,18.02
2023-04-02T22:42:35.000Z,17.1
2023-04-02T22:47:36.000Z,16.93
2023-04-02T22:52:36.000Z,16.61
2023-04-02T22:57:35.000Z,16.26
2023-04-02T23:02:35.000Z,17.45
2023-04-02T23:07:36.000Z,18.06
2023-04-02T23:12:37.000Z,18.06
2023-04-02T23:17:36.000Z,17.19
2023-04-02T23:22:35.000Z,16.61
2023-04-02T23:27:36.000Z,17.44
2023-04-02T23:32:36.000Z,17.23
2023-04-02T23:37:35.000Z,17.41
2023-04-02T23:42:38.000Z,19.77
2023-04-02T23:47:36.000Z,22.78
2023-04-02T23:52:35.000Z,24.31
2023-04-02T23:57:35.000Z,18.75
